createdAt,value
2018-07-02T00:00:50.760Z,16.50
2018-07-02T00:03:19.169Z,16.50
2018-07-02T00:05:58.729Z,16.40
2018-07-02T00:08:26.990Z,16.40
2018-07-02T00:10:55.389Z,16.30
2018-07-02T00:13:23.803Z,16.30
2018-07-02T00:15:52.126Z,16.20
2018-07-02T00:18:20.414Z,16.20
2018-07-02T00:20:48.685Z,16.10
2018-07-02T00:23:16.996Z,16.10
2018-07-02T00:25:45.396Z,16.10
2018-07-02T00:28:13.636Z,16.00
2018-07-02T00:30:41.860Z,16.00
2018-07-02T00:33:10.119Z,15.90
2018-07-02T00:35:38.528Z,15.90
2018-07-02T00:38:06.748Z,15.90
2018-07-02T00:40:35.059Z,15.80
2018-07-02T00:43:03.341Z,15.80
2018-07-02T00:45:31.570Z,15.80
2018-07-02T00:47:59.726Z,15.80
2018-07-02T00:50:27.904Z,15.80
2018-07-02T00:52:56.139Z,15.80
2018-07-02T00:55:24.408Z,15.80
2018-07-02T00:57:52.791Z,15.80
2018-07-02T01:00:21.004Z,15.70
2018-07-02T01:02:49.144Z,15.70
2018-07-02T01:05:17.458Z,15.70
2018-07-02T01:07:45.737Z,15.70
2018-07-02T01:10:14.172Z,15.60
2018-07-02T01:12:43.228Z,15.60
2018-07-02T01:15:11.480Z,15.60
2018-07-02T01:17:39.676Z,15.60
2018-07-02T01:20:07.913Z,15.50
2018-07-02T01:22:36.100Z,15.50
2018-07-02T01:25:04.386Z,15.40
2018-07-02T01:27:38.675Z,15.40
2018-07-02T01:30:06.965Z,15.30
2018-07-02T01:32:35.250Z,15.30
2018-07-02T01:35:03.543Z,15.20
2018-07-02T01:37:31.787Z,15.10
2018-07-02T01:40:00.461Z,15.10
2018-07-02T01:42:28.702Z,15.00
2018-07-02T01:44:56.900Z,15.00
2018-07-02T01:47:25.169Z,15.00
2018-07-02T01:49:53.361Z,15.00
2018-07-02T01:52:21.555Z,15.00
2018-07-02T01:54:49.743Z,15.00
2018-07-02T01:57:18.041Z,15.00
2018-07-02T01:59:46.449Z,14.90
2018-07-02T02:02:14.896Z,14.90
2018-07-02T02:04:43.165Z,14.90
2018-07-02T02:07:11.440Z,14.90
2018-07-02T02:09:39.709Z,14.90
2018-07-02T02:12:08.009Z,14.90
2018-07-02T02:14:36.240Z,14.80
2018-07-02T02:17:04.761Z,14.80
2018-07-02T02:19:32.989Z,14.80
2018-07-02T02:22:01.253Z,14.80
2018-07-02T02:24:29.472Z,14.80
2018-07-02T02:26:57.815Z,14.80
2018-07-02T02:29:26.006Z,14.70
2018-07-02T02:31:54.316Z,14.70
2018-07-02T02:34:22.602Z,14.70
2018-07-02T02:36:50.866Z,14.70
2018-07-02T02:39:19.166Z,14.70
2018-07-02T02:41:47.399Z,14.70
2018-07-02T02:44:15.693Z,14.70
2018-07-02T02:46:43.949Z,14.60
2018-07-02T02:49:12.299Z,14.60
2018-07-02T02:51:40.565Z,14.50
2018-07-02T02:56:36.847Z,14.40
2018-07-02T02:59:05.129Z,14.40
2018-07-02T03:01:33.533Z,14.30
2018-07-02T03:06:29.746Z,14.30
2018-07-02T03:08:57.926Z,14.20
2018-07-02T03:11:26.097Z,14.10
2018-07-02T03:13:54.498Z,14.10
2018-07-02T03:16:22.749Z,14.00
2018-07-02T03:18:50.977Z,14.00
2018-07-02T03:21:19.152Z,13.90
2018-07-02T03:23:47.388Z,13.80
2018-07-02T03:28:43.744Z,13.80
2018-07-02T03:31:11.888Z,13.80
2018-07-02T03:33:40.141Z,13.80
2018-07-02T03:36:08.416Z,13.80
2018-07-02T03:38:36.697Z,13.80
2018-07-02T03:41:05.032Z,13.80
2018-07-02T03:43:33.297Z,13.80
2018-07-02T03:46:01.529Z,13.80
2018-07-02T03:48:29.750Z,13.80
2018-07-02T03:50:58.026Z,13.80
2018-07-02T03:53:26.517Z,13.80
2018-07-02T03:55:54.722Z,13.80
2018-07-02T03:58:22.947Z,13.90
2018-07-02T04:00:51.248Z,13.90
2018-07-02T04:03:19.489Z,13.90
2018-07-02T04:05:47.696Z,13.90
2018-07-02T04:08:16.046Z,13.90
2018-07-02T04:10:44.429Z,13.90
2018-07-02T04:13:12.738Z,14.00
2018-07-02T04:15:40.977Z,14.00
2018-07-02T04:18:09.169Z,14.00
2018-07-02T04:20:44.169Z,14.00
2018-07-02T04:23:12.377Z,14.00
2018-07-02T04:25:40.652Z,14.10
2018-07-02T04:28:08.998Z,14.10
2018-07-02T04:30:37.305Z,14.10
2018-07-02T04:33:05.749Z,14.20
2018-07-02T04:35:34.034Z,14.20
2018-07-02T04:38:02.319Z,14.20
2018-07-02T04:40:30.606Z,14.20
2018-07-02T04:42:58.940Z,14.30
2018-07-02T04:45:35.209Z,14.60
2018-07-02T04:48:03.485Z,15.10
2018-07-02T04:50:31.814Z,15.60
2018-07-02T04:53:00.061Z,16.00
2018-07-02T04:55:39.425Z,16.60
2018-07-02T04:58:07.768Z,16.70
2018-07-02T05:00:36.079Z,17.10
2018-07-02T05:03:04.240Z,17.50
2018-07-02T05:05:32.396Z,17.70
2018-07-02T05:08:01.379Z,17.90
2018-07-02T05:10:29.566Z,18.10
2018-07-02T05:12:57.715Z,18.30
2018-07-02T05:15:25.875Z,18.60
2018-07-02T05:17:54.086Z,18.60
2018-07-02T05:20:24.243Z,18.70
2018-07-02T05:22:52.408Z,18.80
2018-07-02T05:25:20.555Z,18.60
2018-07-02T05:27:48.731Z,18.40
2018-07-02T05:30:17.004Z,18.40
2018-07-02T05:32:45.173Z,18.60
2018-07-02T05:35:13.343Z,18.60
2018-07-02T05:37:41.503Z,18.60
2018-07-02T05:40:09.677Z,18.70
2018-07-02T05:42:37.861Z,19.00
2018-07-02T05:45:06.137Z,19.20
2018-07-02T05:47:34.955Z,19.20
2018-07-02T05:50:03.139Z,19.20
2018-07-02T05:52:31.388Z,19.50
2018-07-02T05:55:00.143Z,19.40
2018-07-02T05:57:28.329Z,19.70
2018-07-02T05:59:56.568Z,19.70
2018-07-02T06:02:25.135Z,19.70
2018-07-02T06:04:53.539Z,20.00
2018-07-02T06:09:51.261Z,20.00
2018-07-02T06:12:19.466Z,19.90
2018-07-02T06:14:47.668Z,20.00
2018-07-02T06:17:15.876Z,20.20
2018-07-02T06:19:44.043Z,20.30
2018-07-02T06:22:12.229Z,20.40
2018-07-02T06:24:40.436Z,20.70
2018-07-02T06:27:08.627Z,21.00
2018-07-02T06:29:36.809Z,21.40
2018-07-02T06:32:05.765Z,21.10
2018-07-02T06:34:33.941Z,21.10
2018-07-02T06:37:02.123Z,21.20
2018-07-02T06:39:30.328Z,21.60
2018-07-02T06:41:59.972Z,21.40
2018-07-02T06:44:28.290Z,21.50
2018-07-02T06:46:56.447Z,21.70
2018-07-02T06:49:28.241Z,21.60
2018-07-02T06:51:56.400Z,21.90
2018-07-02T06:54:24.609Z,22.00
2018-07-02T06:56:53.135Z,22.30
2018-07-02T06:59:21.263Z,22.40
2018-07-02T07:01:49.808Z,22.20
2018-07-02T07:04:17.956Z,22.60
2018-07-02T07:06:46.139Z,22.90
2018-07-02T07:09:14.420Z,22.80
2018-07-02T07:11:42.578Z,22.90
2018-07-02T07:16:38.649Z,23.70
2018-07-02T07:24:03.153Z,23.60
2018-07-02T07:26:31.465Z,23.70
2018-07-02T07:28:59.857Z,23.70
2018-07-02T07:31:28.000Z,23.80
2018-07-02T07:33:56.182Z,23.40
2018-07-02T07:36:24.342Z,23.40
2018-07-02T07:38:52.589Z,23.60
2018-07-02T07:41:20.751Z,23.50
2018-07-02T07:43:49.207Z,23.80
2018-07-02T07:46:17.394Z,24.10
2018-07-02T07:48:45.549Z,24.30
2018-07-02T07:51:13.828Z,24.80
2018-07-02T07:53:43.305Z,24.40
2018-07-02T07:56:11.583Z,24.30
2018-07-02T07:58:39.756Z,24.40
2018-07-02T08:03:35.884Z,24.10
2018-07-02T08:06:04.237Z,24.80
2018-07-02T08:08:34.242Z,25.50
2018-07-02T08:11:02.395Z,25.00
2018-07-02T08:13:30.562Z,25.10
2018-07-02T08:15:58.751Z,25.30
2018-07-02T08:18:26.941Z,25.50
2018-07-02T08:20:55.094Z,25.70
2018-07-02T08:23:23.262Z,25.70
2018-07-02T08:25:51.413Z,24.80
2018-07-02T08:28:20.872Z,24.70
2018-07-02T08:30:49.116Z,24.80
2018-07-02T08:33:17.656Z,24.70
2018-07-02T08:35:47.527Z,24.90
2018-07-02T08:38:19.440Z,25.40
2018-07-02T08:40:49.856Z,25.20
2018-07-02T08:43:18.035Z,25.60
2018-07-02T08:45:53.225Z,25.90
2018-07-02T08:48:21.414Z,26.00
2018-07-02T08:50:49.604Z,25.90
2018-07-02T08:53:17.792Z,25.80
2018-07-02T08:55:46.040Z,25.70
2018-07-02T08:58:14.535Z,25.30
2018-07-02T09:00:42.695Z,25.10
2018-07-02T09:03:12.155Z,25.00
2018-07-02T09:05:41.320Z,25.10
2018-07-02T09:08:09.636Z,25.60
2018-07-02T09:10:37.848Z,25.80
2018-07-02T09:13:06.059Z,26.00
2018-07-02T09:15:34.297Z,25.70
2018-07-02T09:18:02.850Z,25.40
2018-07-02T09:20:31.466Z,25.40
2018-07-02T09:23:00.592Z,26.10
2018-07-02T09:25:29.185Z,26.00
2018-07-02T09:27:57.698Z,26.30
2018-07-02T09:30:26.915Z,26.70
2018-07-02T09:32:55.075Z,26.80
2018-07-02T09:35:24.566Z,26.90
2018-07-02T09:37:53.721Z,27.20
2018-07-02T09:40:21.923Z,27.10
2018-07-02T09:42:50.097Z,26.90
2018-07-02T09:45:18.393Z,26.70
2018-07-02T09:47:46.602Z,26.60
2018-07-02T09:50:14.812Z,26.50
2018-07-02T09:52:43.370Z,26.50
2018-07-02T09:55:11.592Z,26.80
2018-07-02T09:57:40.316Z,27.10
2018-07-02T10:00:08.925Z,26.60
2018-07-02T10:02:36.909Z,26.90
2018-07-02T10:05:05.701Z,27.00
2018-07-02T10:07:46.450Z,26.80
2018-07-02T10:10:14.715Z,27.10
2018-07-02T10:12:42.941Z,27.10
2018-07-02T10:15:11.056Z,27.50
2018-07-02T10:17:43.405Z,26.90
2018-07-02T10:20:11.752Z,27.10
2018-07-02T10:22:46.866Z,27.50
2018-07-02T10:25:15.841Z,27.30
2018-07-02T10:27:44.933Z,27.00
2018-07-02T10:30:13.380Z,26.60
2018-07-02T10:32:41.552Z,26.70
2018-07-02T10:35:09.761Z,26.70
2018-07-02T10:37:38.048Z,26.30
2018-07-02T10:40:06.225Z,26.10
2018-07-02T10:42:34.613Z,26.30
2018-07-02T10:45:02.832Z,26.10
2018-07-02T10:47:30.993Z,25.80
2018-07-02T10:49:59.138Z,25.90
2018-07-02T10:54:56.405Z,25.60
2018-07-02T10:57:30.621Z,25.20
2018-07-02T10:59:58.787Z,25.20
2018-07-02T11:02:26.928Z,25.20
2018-07-02T11:04:58.857Z,25.20
2018-07-02T11:07:28.089Z,25.40
2018-07-02T11:09:56.274Z,25.40
2018-07-02T11:12:44.664Z,25.40
2018-07-02T11:17:40.793Z,25.60
2018-07-02T11:20:08.950Z,25.50
2018-07-02T11:22:38.100Z,25.50
2018-07-02T11:30:56.777Z,25.60
2018-07-02T11:33:30.144Z,25.50
2018-07-02T11:35:58.990Z,25.90
2018-07-02T11:38:27.936Z,26.00
2018-07-02T11:40:56.334Z,25.80
2018-07-02T11:43:25.707Z,25.80
2018-07-02T11:45:54.140Z,25.90
2018-07-02T11:51:15.719Z,25.90
2018-07-02T11:53:45.178Z,25.90
2018-07-02T11:56:13.545Z,26.00
2018-07-02T11:58:42.425Z,26.10
2018-07-02T12:01:12.034Z,25.80
2018-07-02T12:03:50.755Z,25.70
2018-07-02T12:06:19.463Z,25.60
2018-07-02T12:08:48.008Z,25.90
2018-07-02T12:11:16.918Z,25.70
2018-07-02T12:13:50.998Z,25.70
2018-07-02T12:16:19.330Z,25.90
2018-07-02T12:18:47.691Z,25.80
2018-07-02T12:21:15.979Z,25.90
2018-07-02T12:26:15.704Z,25.70
2018-07-02T12:28:43.962Z,25.80
2018-07-02T12:31:12.283Z,25.90
2018-07-02T12:33:40.498Z,26.00
2018-07-02T12:36:08.724Z,26.10
2018-07-02T12:38:36.928Z,26.20
2018-07-02T12:41:05.759Z,26.30
2018-07-02T12:43:34.091Z,26.30
2018-07-02T12:46:02.486Z,26.30
2018-07-02T12:48:30.665Z,26.30
2018-07-02T12:50:58.855Z,26.30
2018-07-02T12:53:27.248Z,26.40
2018-07-02T12:55:55.689Z,26.30
2018-07-02T12:58:25.101Z,26.40
2018-07-02T13:00:53.749Z,26.30
2018-07-02T13:03:21.909Z,26.30
2018-07-02T13:05:50.115Z,26.40
2018-07-02T13:08:19.057Z,26.30
2018-07-02T13:10:52.413Z,26.40
2018-07-02T13:13:21.105Z,26.50
2018-07-02T13:15:49.305Z,26.70
2018-07-02T13:18:17.492Z,26.80
2018-07-02T13:20:50.222Z,26.80
2018-07-02T13:23:18.539Z,26.50
2018-07-02T13:25:52.479Z,26.50
2018-07-02T13:28:20.793Z,26.60
2018-07-02T13:30:49.011Z,26.50
2018-07-02T13:33:18.494Z,26.50
2018-07-02T13:35:47.016Z,26.30
2018-07-02T13:38:15.496Z,26.20
2018-07-02T13:40:43.817Z,26.40
2018-07-02T13:43:12.946Z,26.30
2018-07-02T13:45:41.940Z,26.40
2018-07-02T13:48:10.269Z,26.30
2018-07-02T13:53:30.963Z,26.70
2018-07-02T13:55:59.334Z,26.70
2018-07-02T13:58:27.763Z,26.90
2018-07-02T14:00:56.058Z,26.70
2018-07-02T14:03:24.192Z,26.80
2018-07-02T14:05:52.388Z,26.60
2018-07-02T14:08:20.635Z,26.80
2018-07-02T14:10:48.800Z,26.70
2018-07-02T14:13:16.983Z,26.70
2018-07-02T14:15:45.691Z,26.80
2018-07-02T14:18:13.867Z,26.80
2018-07-02T14:20:42.072Z,26.70
2018-07-02T14:23:10.316Z,26.80
2018-07-02T14:25:38.547Z,26.90
2018-07-02T14:28:06.738Z,27.00
2018-07-02T14:30:34.962Z,26.80
2018-07-02T14:33:13.832Z,26.80
2018-07-02T14:35:41.989Z,27.00
2018-07-02T14:38:10.223Z,27.10
2018-07-02T14:40:38.410Z,27.00
2018-07-02T14:43:08.009Z,27.00
2018-07-02T14:45:38.346Z,26.90
2018-07-02T14:48:06.596Z,27.00
2018-07-02T14:50:34.804Z,27.20
2018-07-02T14:53:03.077Z,27.10
2018-07-02T14:55:31.263Z,27.20
2018-07-02T14:57:59.526Z,27.40
2018-07-02T15:00:27.708Z,27.50
2018-07-02T15:02:55.931Z,27.50
2018-07-02T15:05:24.152Z,27.40
2018-07-02T15:07:52.351Z,27.40
2018-07-02T15:10:20.675Z,27.40
2018-07-02T15:12:48.888Z,27.30
2018-07-02T15:15:17.280Z,27.30
2018-07-02T15:17:45.465Z,27.10
2018-07-02T15:20:13.682Z,27.20
2018-07-02T15:22:41.984Z,27.10
2018-07-02T15:25:10.315Z,27.30
2018-07-02T15:27:38.513Z,27.30
2018-07-02T15:30:06.709Z,27.30
2018-07-02T15:32:34.904Z,27.20
2018-07-02T15:35:03.308Z,27.20
2018-07-02T15:37:31.544Z,27.20
2018-07-02T15:40:03.426Z,27.40
2018-07-02T15:42:31.615Z,27.30
2018-07-02T15:45:00.274Z,27.40
2018-07-02T15:47:28.712Z,27.40
2018-07-02T15:50:07.615Z,27.40
2018-07-02T15:52:35.834Z,27.40
2018-07-02T15:55:04.061Z,27.30
2018-07-02T15:57:32.240Z,27.30
2018-07-02T16:00:00.418Z,27.30
2018-07-02T16:02:28.650Z,27.40
2018-07-02T16:04:56.838Z,27.40
2018-07-02T16:07:25.052Z,27.50
2018-07-02T16:12:22.454Z,27.40
2018-07-02T16:14:50.656Z,27.60
2018-07-02T16:17:18.969Z,27.60
2018-07-02T16:19:47.156Z,27.70
2018-07-02T16:22:15.440Z,27.60
2018-07-02T16:24:43.641Z,27.50
2018-07-02T16:27:11.837Z,27.80
2018-07-02T16:29:40.043Z,27.80
2018-07-02T16:32:08.252Z,27.90
2018-07-02T16:34:36.452Z,28.30
2018-07-02T16:37:05.073Z,28.70
2018-07-02T16:39:33.291Z,29.00
2018-07-02T16:42:01.491Z,28.70
2018-07-02T16:44:30.025Z,28.50
2018-07-02T16:46:58.264Z,28.50
2018-07-02T16:49:26.452Z,28.40
2018-07-02T16:51:54.838Z,27.90
2018-07-02T16:54:23.024Z,28.10
2018-07-02T16:56:51.333Z,28.30
2018-07-02T16:59:19.528Z,28.20
2018-07-02T17:01:47.848Z,28.20
2018-07-02T17:04:16.118Z,28.10
2018-07-02T17:06:44.420Z,27.80
2018-07-02T17:09:13.212Z,27.70
2018-07-02T17:11:41.636Z,27.70
2018-07-02T17:14:10.645Z,28.00
2018-07-02T17:16:39.492Z,28.10
2018-07-02T17:19:07.650Z,28.00
2018-07-02T17:21:35.865Z,27.80
2018-07-02T17:24:04.094Z,28.30
2018-07-02T17:26:32.280Z,28.60
2018-07-02T17:29:00.479Z,28.50
2018-07-02T17:31:28.665Z,28.60
2018-07-02T17:33:56.889Z,28.80
2018-07-02T17:36:25.066Z,29.40
2018-07-02T17:38:53.239Z,29.90
2018-07-02T17:41:21.491Z,29.50
2018-07-02T17:44:13.485Z,28.60
2018-07-02T17:46:41.671Z,28.00
2018-07-02T17:49:09.922Z,28.10
2018-07-02T17:51:38.317Z,27.80
2018-07-02T17:54:06.747Z,27.70
2018-07-02T17:56:35.137Z,27.50
2018-07-02T17:59:03.302Z,27.30
2018-07-02T18:01:31.502Z,27.20
2018-07-02T18:04:07.624Z,27.20
2018-07-02T18:06:35.833Z,27.20
2018-07-02T18:09:06.904Z,27.10
2018-07-02T18:11:35.119Z,27.00
2018-07-02T18:14:22.595Z,26.80
2018-07-02T18:16:57.667Z,26.80
2018-07-02T18:19:25.984Z,26.40
2018-07-02T18:21:54.250Z,26.40
2018-07-02T18:24:22.451Z,26.30
2018-07-02T18:26:50.825Z,26.30
2018-07-02T18:29:18.994Z,26.40
2018-07-02T18:31:47.327Z,26.40
2018-07-02T18:34:15.588Z,26.10
2018-07-02T18:36:49.829Z,26.10
2018-07-02T18:42:11.709Z,26.00
2018-07-02T18:44:39.974Z,25.80
2018-07-02T18:47:13.787Z,25.80
2018-07-02T18:49:44.104Z,25.80
2018-07-02T18:52:13.440Z,25.80
2018-07-02T18:54:41.831Z,25.80
2018-07-02T18:57:10.152Z,25.60
2018-07-02T18:59:39.236Z,25.50
2018-07-02T19:02:07.504Z,25.40
2018-07-02T19:04:36.893Z,25.20
2018-07-02T19:07:05.351Z,25.00
2018-07-02T19:09:33.761Z,25.00
2018-07-02T19:12:01.977Z,24.90
2018-07-02T19:14:30.169Z,24.70
2018-07-02T19:16:58.441Z,24.60
2018-07-02T19:19:31.467Z,24.50
2018-07-02T19:22:00.816Z,24.40
2018-07-02T19:24:31.163Z,24.30
2018-07-02T19:27:05.649Z,24.10
2018-07-02T19:29:33.945Z,24.00
2018-07-02T19:32:02.130Z,23.80
2018-07-02T19:34:30.404Z,23.70
2018-07-02T19:36:58.763Z,23.60
2018-07-02T19:39:30.626Z,23.50
2018-07-02T19:41:58.909Z,23.50
2018-07-02T19:44:27.182Z,23.40
2018-07-02T19:46:55.453Z,23.30
2018-07-02T19:49:35.959Z,23.20
2018-07-02T19:52:04.324Z,23.00
2018-07-02T19:57:00.844Z,22.80
2018-07-02T19:59:34.318Z,22.60
2018-07-02T20:02:13.728Z,22.50
2018-07-02T20:04:41.999Z,22.20
2018-07-02T20:07:10.316Z,21.90
2018-07-02T20:09:38.535Z,21.60
2018-07-02T20:12:08.858Z,21.40
2018-07-02T20:14:37.073Z,21.30
2018-07-02T20:17:05.531Z,21.20
2018-07-02T20:19:33.861Z,21.10
2018-07-02T20:22:02.181Z,21.00
2018-07-02T20:24:30.370Z,20.90
2018-07-02T20:26:58.638Z,20.80
2018-07-02T20:29:26.997Z,20.70
2018-07-02T20:32:18.459Z,20.70
2018-07-02T20:34:46.687Z,20.60
2018-07-02T20:37:22.216Z,20.50
2018-07-02T20:39:50.537Z,20.40
2018-07-02T20:42:18.768Z,20.40
2018-07-02T20:44:46.967Z,20.30
2018-07-02T20:47:15.111Z,20.10
2018-07-02T20:49:43.389Z,20.10
2018-07-02T20:52:11.515Z,20.00
2018-07-02T20:54:39.682Z,19.90
2018-07-02T20:57:08.436Z,19.80
2018-07-02T20:59:36.972Z,19.70
2018-07-02T21:02:05.144Z,19.60
2018-07-02T21:04:34.071Z,19.50
2018-07-02T21:07:02.257Z,19.40
2018-07-02T21:09:31.033Z,19.40
2018-07-02T21:12:00.919Z,19.30
2018-07-02T21:14:29.172Z,19.20
2018-07-02T21:17:06.899Z,19.10
2018-07-02T21:19:35.115Z,19.00
2018-07-02T21:22:03.346Z,18.90
2018-07-02T21:24:31.528Z,18.80
2018-07-02T21:26:59.743Z,18.80
2018-07-02T21:29:27.924Z,18.70
2018-07-02T21:31:56.148Z,18.70
2018-07-02T21:34:24.385Z,18.60
2018-07-02T21:36:53.701Z,18.50
2018-07-02T21:39:21.838Z,18.40
2018-07-02T21:41:50.022Z,18.40
2018-07-02T21:44:18.200Z,18.30
2018-07-02T21:46:46.393Z,18.30
2018-07-02T21:49:14.634Z,18.20
2018-07-02T21:51:42.819Z,18.20
2018-07-02T21:54:11.066Z,18.10
2018-07-02T21:56:39.364Z,18.10
2018-07-02T21:59:07.585Z,18.10
2018-07-02T22:01:35.771Z,18.00
2018-07-02T22:04:04.073Z,17.90
2018-07-02T22:06:32.224Z,17.90
2018-07-02T22:11:28.396Z,17.80
2018-07-02T22:13:56.580Z,17.70
2018-07-02T22:16:24.756Z,17.60
2018-07-02T22:18:52.983Z,17.50
2018-07-02T22:21:21.178Z,17.50
2018-07-02T22:23:49.365Z,17.40
2018-07-02T22:26:17.556Z,17.30
2018-07-02T22:28:45.749Z,17.30
2018-07-02T22:31:13.931Z,17.20
2018-07-02T22:33:42.128Z,17.20
2018-07-02T22:36:10.308Z,17.10
2018-07-02T22:38:38.492Z,17.10
2018-07-02T22:41:06.709Z,17.00
2018-07-02T22:43:34.908Z,17.00
2018-07-02T22:46:03.165Z,16.90
2018-07-02T22:48:31.332Z,16.80
2018-07-02T22:50:59.518Z,16.80
2018-07-02T22:53:27.760Z,16.70
2018-07-02T22:56:00.155Z,16.70
2018-07-02T22:58:28.403Z,16.60
2018-07-02T23:00:57.259Z,16.60
2018-07-02T23:03:25.507Z,16.60
2018-07-02T23:05:53.752Z,16.60
2018-07-02T23:08:22.029Z,16.50
2018-07-02T23:10:50.238Z,16.50
2018-07-02T23:13:23.785Z,16.40
2018-07-02T23:15:56.183Z,16.40
2018-07-02T23:18:24.790Z,16.30
2018-07-02T23:20:52.980Z,16.30
2018-07-02T23:23:21.147Z,16.30
2018-07-02T23:25:49.319Z,16.20
2018-07-02T23:28:17.476Z,16.10
2018-07-02T23:30:45.660Z,16.10
2018-07-02T23:33:13.827Z,16.10
2018-07-02T23:35:42.005Z,16.20
2018-07-02T23:38:10.168Z,16.20
2018-07-02T23:40:38.418Z,16.30
2018-07-02T23:43:06.591Z,16.20
2018-07-02T23:45:34.891Z,16.20
2018-07-02T23:48:03.099Z,16.20
2018-07-02T23:50:31.334Z,16.20
2018-07-02T23:52:59.524Z,16.00
2018-07-02T23:55:27.755Z,16.00
2018-07-02T23:57:55.949Z,16.00
